sensor_id;sensor_type;location;lat;lon;timestamp;temperature;humidity
9448;DHT22;4762;48.128;11.376;2024-02-23T00:01:56;6.50;84.60
9448;DHT22;4762;48.128;11.376;2024-02-23T00:03:58;6.70;83.60
9448;DHT22;4762;48.128;11.376;2024-02-23T00:06:01;6.80;83.00
9448;DHT22;4762;48.128;11.376;2024-02-23T00:08:03;6.80;82.20
9448;DHT22;4762;48.128;11.376;2024-02-23T00:10:06;6.70;82.50
9448;DHT22;4762;48.128;11.376;2024-02-23T00:12:08;6.80;81.30
9448;DHT22;4762;48.128;11.376;2024-02-23T00:14:11;6.70;82.00
9448;DHT22;4762;48.128;11.376;2024-02-23T00:16:16;6.70;81.70
9448;DHT22;4762;48.128;11.376;2024-02-23T00:18:18;6.80;81.80
9448;DHT22;4762;48.128;11.376;2024-02-23T00:20:20;6.90;81.30
9448;DHT22;4762;48.128;11.376;2024-02-23T00:22:22;6.80;81.60
9448;DHT22;4762;48.128;11.376;2024-02-23T00:24:25;6.70;80.60
9448;DHT22;4762;48.128;11.376;2024-02-23T00:26:29;6.80;80.40
9448;DHT22;4762;48.128;11.376;2024-02-23T00:28:32;6.80;80.20
9448;DHT22;4762;48.128;11.376;2024-02-23T00:30:34;6.90;80.60
9448;DHT22;4762;48.128;11.376;2024-02-23T00:32:36;6.60;80.80
9448;DHT22;4762;48.128;11.376;2024-02-23T00:34:39;6.70;80.20
9448;DHT22;4762;48.128;11.376;2024-02-23T00:36:41;6.60;79.70
9448;DHT22;4762;48.128;11.376;2024-02-23T00:38:44;6.80;79.80
9448;DHT22;4762;48.128;11.376;2024-02-23T00:40:46;6.60;79.80
9448;DHT22;4762;48.128;11.376;2024-02-23T00:42:48;6.70;79.00
9448;DHT22;4762;48.128;11.376;2024-02-23T00:44:50;6.80;79.50
9448;DHT22;4762;48.128;11.376;2024-02-23T00:46:53;6.70;79.20
9448;DHT22;4762;48.128;11.376;2024-02-23T00:48:55;6.50;79.80
9448;DHT22;4762;48.128;11.376;2024-02-23T00:50:57;6.70;79.00
9448;DHT22;4762;48.128;11.376;2024-02-23T00:52:59;6.70;79.40
9448;DHT22;4762;48.128;11.376;2024-02-23T00:55:02;6.90;77.70
9448;DHT22;4762;48.128;11.376;2024-02-23T00:57:04;6.80;78.10
9448;DHT22;4762;48.128;11.376;2024-02-23T00:59:06;6.80;79.00
9448;DHT22;4762;48.128;11.376;2024-02-23T01:01:08;6.90;78.60
9448;DHT22;4762;48.128;11.376;2024-02-23T01:03:11;6.60;78.70
9448;DHT22;4762;48.128;11.376;2024-02-23T01:05:13;6.70;78.90
9448;DHT22;4762;48.128;11.376;2024-02-23T01:07:15;6.60;78.00
9448;DHT22;4762;48.128;11.376;2024-02-23T01:09:17;6.70;77.80
9448;DHT22;4762;48.128;11.376;2024-02-23T01:11:19;6.70;78.70
9448;DHT22;4762;48.128;11.376;2024-02-23T01:13:22;6.70;79.00
9448;DHT22;4762;48.128;11.376;2024-02-23T01:15:24;6.80;77.80
9448;DHT22;4762;48.128;11.376;2024-02-23T01:17:26;6.80;77.40
9448;DHT22;4762;48.128;11.376;2024-02-23T01:19:28;6.90;76.30
9448;DHT22;4762;48.128;11.376;2024-02-23T01:21:31;6.90;76.40
9448;DHT22;4762;48.128;11.376;2024-02-23T01:23:33;6.70;76.20
9448;DHT22;4762;48.128;11.376;2024-02-23T01:25:36;6.70;76.80
9448;DHT22;4762;48.128;11.376;2024-02-23T01:27:38;6.80;77.20
9448;DHT22;4762;48.128;11.376;2024-02-23T01:29:40;6.50;76.50
9448;DHT22;4762;48.128;11.376;2024-02-23T01:31:42;6.50;76.00
9448;DHT22;4762;48.128;11.376;2024-02-23T01:33:45;6.50;77.00
9448;DHT22;4762;48.128;11.376;2024-02-23T01:35:47;6.50;77.50
9448;DHT22;4762;48.128;11.376;2024-02-23T01:37:49;6.30;77.80
9448;DHT22;4762;48.128;11.376;2024-02-23T01:39:51;6.40;77.90
9448;DHT22;4762;48.128;11.376;2024-02-23T01:41:53;6.40;77.60
9448;DHT22;4762;48.128;11.376;2024-02-23T01:43:56;6.30;77.40
9448;DHT22;4762;48.128;11.376;2024-02-23T01:45:59;6.30;77.70
9448;DHT22;4762;48.128;11.376;2024-02-23T01:48:01;6.40;77.90
9448;DHT22;4762;48.128;11.376;2024-02-23T01:50:03;6.40;77.90
9448;DHT22;4762;48.128;11.376;2024-02-23T01:52:06;6.40;77.90
9448;DHT22;4762;48.128;11.376;2024-02-23T01:54:08;6.40;78.20
9448;DHT22;4762;48.128;11.376;2024-02-23T01:56:11;6.10;78.40
9448;DHT22;4762;48.128;11.376;2024-02-23T01:58:14;6.30;78.40
9448;DHT22;4762;48.128;11.376;2024-02-23T02:00:17;6.30;78.10
9448;DHT22;4762;48.128;11.376;2024-02-23T02:02:18;6.20;78.40
9448;DHT22;4762;48.128;11.376;2024-02-23T02:04:21;6.20;78.80
9448;DHT22;4762;48.128;11.376;2024-02-23T02:06:24;6.20;78.90
9448;DHT22;4762;48.128;11.376;2024-02-23T02:08:26;5.90;79.50
9448;DHT22;4762;48.128;11.376;2024-02-23T02:10:28;6.10;79.40
9448;DHT22;4762;48.128;11.376;2024-02-23T02:12:30;5.90;79.00
9448;DHT22;4762;48.128;11.376;2024-02-23T02:14:32;6.00;78.70
9448;DHT22;4762;48.128;11.376;2024-02-23T02:16:34;5.70;79.10
9448;DHT22;4762;48.128;11.376;2024-02-23T02:18:36;6.00;79.20
9448;DHT22;4762;48.128;11.376;2024-02-23T02:20:39;6.20;79.10
9448;DHT22;4762;48.128;11.376;2024-02-23T02:22:41;6.10;78.90
9448;DHT22;4762;48.128;11.376;2024-02-23T02:24:44;6.00;78.80
9448;DHT22;4762;48.128;11.376;2024-02-23T02:26:46;6.10;78.40
9448;DHT22;4762;48.128;11.376;2024-02-23T02:28:48;6.10;77.80
9448;DHT22;4762;48.128;11.376;2024-02-23T02:30:51;5.90;77.90
9448;DHT22;4762;48.128;11.376;2024-02-23T02:32:53;6.20;77.40
9448;DHT22;4762;48.128;11.376;2024-02-23T02:34:55;6.10;77.80
9448;DHT22;4762;48.128;11.376;2024-02-23T02:36:57;6.00;77.30
9448;DHT22;4762;48.128;11.376;2024-02-23T02:38:59;6.10;77.00
9448;DHT22;4762;48.128;11.376;2024-02-23T02:41:01;6.10;77.70
9448;DHT22;4762;48.128;11.376;2024-02-23T02:43:04;6.00;76.80
9448;DHT22;4762;48.128;11.376;2024-02-23T02:45:06;6.10;77.40
9448;DHT22;4762;48.128;11.376;2024-02-23T02:47:08;5.90;77.60
9448;DHT22;4762;48.128;11.376;2024-02-23T02:49:11;5.90;77.60
9448;DHT22;4762;48.128;11.376;2024-02-23T02:51:13;6.10;77.40
9448;DHT22;4762;48.128;11.376;2024-02-23T02:53:15;5.90;77.40
9448;DHT22;4762;48.128;11.376;2024-02-23T02:55:17;6.00;78.10
9448;DHT22;4762;48.128;11.376;2024-02-23T02:57:20;6.00;77.90
9448;DHT22;4762;48.128;11.376;2024-02-23T02:59:22;6.00;77.30
9448;DHT22;4762;48.128;11.376;2024-02-23T03:01:25;6.10;76.10
9448;DHT22;4762;48.128;11.376;2024-02-23T03:03:27;6.10;76.80
9448;DHT22;4762;48.128;11.376;2024-02-23T03:05:30;6.00;76.60
9448;DHT22;4762;48.128;11.376;2024-02-23T03:07:32;6.00;76.40
9448;DHT22;4762;48.128;11.376;2024-02-23T03:09:34;6.20;76.00
9448;DHT22;4762;48.128;11.376;2024-02-23T03:11:36;5.90;74.80
9448;DHT22;4762;48.128;11.376;2024-02-23T03:13:38;6.10;75.30
9448;DHT22;4762;48.128;11.376;2024-02-23T03:15:41;6.00;75.60
9448;DHT22;4762;48.128;11.376;2024-02-23T03:17:43;5.90;75.70
9448;DHT22;4762;48.128;11.376;2024-02-23T03:19:45;6.00;76.00
9448;DHT22;4762;48.128;11.376;2024-02-23T03:21:47;5.90;76.40
9448;DHT22;4762;48.128;11.376;2024-02-23T03:23:49;6.10;76.40
9448;DHT22;4762;48.128;11.376;2024-02-23T03:25:52;5.80;77.20
9448;DHT22;4762;48.128;11.376;2024-02-23T03:27:54;6.00;77.00
9448;DHT22;4762;48.128;11.376;2024-02-23T03:29:56;5.80;77.90
9448;DHT22;4762;48.128;11.376;2024-02-23T03:32:00;5.80;77.90
9448;DHT22;4762;48.128;11.376;2024-02-23T03:34:02;5.80;78.70
9448;DHT22;4762;48.128;11.376;2024-02-23T03:36:03;5.70;78.90
9448;DHT22;4762;48.128;11.376;2024-02-23T03:38:06;5.60;78.80
9448;DHT22;4762;48.128;11.376;2024-02-23T03:40:08;5.70;79.60
9448;DHT22;4762;48.128;11.376;2024-02-23T03:42:11;5.50;81.00
9448;DHT22;4762;48.128;11.376;2024-02-23T03:44:13;5.50;80.60
9448;DHT22;4762;48.128;11.376;2024-02-23T03:46:15;5.30;82.50
9448;DHT22;4762;48.128;11.376;2024-02-23T03:48:17;5.20;83.50
9448;DHT22;4762;48.128;11.376;2024-02-23T03:50:19;5.20;83.20
9448;DHT22;4762;48.128;11.376;2024-02-23T03:52:22;5.20;83.50
9448;DHT22;4762;48.128;11.376;2024-02-23T03:54:24;5.20;83.00
9448;DHT22;4762;48.128;11.376;2024-02-23T03:56:26;5.30;83.10
9448;DHT22;4762;48.128;11.376;2024-02-23T03:58:28;5.10;82.60
9448;DHT22;4762;48.128;11.376;2024-02-23T04:00:31;5.40;81.80
9448;DHT22;4762;48.128;11.376;2024-02-23T04:02:33;5.00;82.10
9448;DHT22;4762;48.128;11.376;2024-02-23T04:04:35;5.20;82.20
9448;DHT22;4762;48.128;11.376;2024-02-23T04:06:37;5.20;82.10
9448;DHT22;4762;48.128;11.376;2024-02-23T04:08:39;5.20;81.60
9448;DHT22;4762;48.128;11.376;2024-02-23T04:10:42;5.10;82.10
9448;DHT22;4762;48.128;11.376;2024-02-23T04:12:44;5.10;82.00
9448;DHT22;4762;48.128;11.376;2024-02-23T04:14:46;5.10;80.90
9448;DHT22;4762;48.128;11.376;2024-02-23T04:16:49;5.00;81.00
9448;DHT22;4762;48.128;11.376;2024-02-23T04:18:51;5.10;81.60
9448;DHT22;4762;48.128;11.376;2024-02-23T04:20:53;4.80;81.90
9448;DHT22;4762;48.128;11.376;2024-02-23T04:22:55;4.90;83.00
9448;DHT22;4762;48.128;11.376;2024-02-23T04:24:58;4.80;83.10
9448;DHT22;4762;48.128;11.376;2024-02-23T04:27:00;4.70;83.00
9448;DHT22;4762;48.128;11.376;2024-02-23T04:29:02;4.80;82.70
9448;DHT22;4762;48.128;11.376;2024-02-23T04:31:04;4.90;83.40
9448;DHT22;4762;48.128;11.376;2024-02-23T04:33:06;4.60;83.10
9448;DHT22;4762;48.128;11.376;2024-02-23T04:35:09;4.60;82.60
9448;DHT22;4762;48.128;11.376;2024-02-23T04:37:11;4.80;83.10
9448;DHT22;4762;48.128;11.376;2024-02-23T04:39:13;4.50;83.50
9448;DHT22;4762;48.128;11.376;2024-02-23T04:41:19;4.40;84.90
9448;DHT22;4762;48.128;11.376;2024-02-23T04:43:18;4.60;85.60
9448;DHT22;4762;48.128;11.376;2024-02-23T04:45:20;4.50;89.60
9448;DHT22;4762;48.128;11.376;2024-02-23T04:47:22;4.40;90.60
9448;DHT22;4762;48.128;11.376;2024-02-23T04:49:24;4.30;90.60
9448;DHT22;4762;48.128;11.376;2024-02-23T04:51:26;4.20;91.10
9448;DHT22;4762;48.128;11.376;2024-02-23T04:53:29;4.40;91.30
9448;DHT22;4762;48.128;11.376;2024-02-23T04:55:32;4.30;91.50
9448;DHT22;4762;48.128;11.376;2024-02-23T04:57:36;4.20;91.20
9448;DHT22;4762;48.128;11.376;2024-02-23T04:59:36;4.00;91.30
9448;DHT22;4762;48.128;11.376;2024-02-23T05:01:38;4.40;91.30
9448;DHT22;4762;48.128;11.376;2024-02-23T05:03:41;4.30;91.30
9448;DHT22;4762;48.128;11.376;2024-02-23T05:05:43;4.40;91.50
9448;DHT22;4762;48.128;11.376;2024-02-23T05:07:45;4.40;91.30
9448;DHT22;4762;48.128;11.376;2024-02-23T05:09:47;4.20;91.30
9448;DHT22;4762;48.128;11.376;2024-02-23T05:11:49;4.20;88.40
9448;DHT22;4762;48.128;11.376;2024-02-23T05:13:52;4.30;88.10
9448;DHT22;4762;48.128;11.376;2024-02-23T05:15:55;4.30;88.20
9448;DHT22;4762;48.128;11.376;2024-02-23T05:17:57;4.20;88.10
9448;DHT22;4762;48.128;11.376;2024-02-23T05:19:59;4.50;88.10
9448;DHT22;4762;48.128;11.376;2024-02-23T05:22:01;4.40;88.20
9448;DHT22;4762;48.128;11.376;2024-02-23T05:24:04;4.20;88.20
9448;DHT22;4762;48.128;11.376;2024-02-23T05:26:07;4.20;88.40
9448;DHT22;4762;48.128;11.376;2024-02-23T05:28:09;4.20;88.20
9448;DHT22;4762;48.128;11.376;2024-02-23T05:30:11;4.40;88.00
9448;DHT22;4762;48.128;11.376;2024-02-23T05:32:14;4.20;88.20
9448;DHT22;4762;48.128;11.376;2024-02-23T05:34:16;4.20;88.40
9448;DHT22;4762;48.128;11.376;2024-02-23T05:36:18;4.30;88.20
9448;DHT22;4762;48.128;11.376;2024-02-23T05:38:20;4.40;88.00
9448;DHT22;4762;48.128;11.376;2024-02-23T05:40:23;4.30;87.90
9448;DHT22;4762;48.128;11.376;2024-02-23T05:42:25;4.40;88.10
9448;DHT22;4762;48.128;11.376;2024-02-23T05:44:28;4.30;88.20
9448;DHT22;4762;48.128;11.376;2024-02-23T05:46:30;4.20;87.80
9448;DHT22;4762;48.128;11.376;2024-02-23T05:48:32;4.40;87.70
9448;DHT22;4762;48.128;11.376;2024-02-23T05:50:34;4.30;88.00
9448;DHT22;4762;48.128;11.376;2024-02-23T05:52:36;4.30;87.70
9448;DHT22;4762;48.128;11.376;2024-02-23T05:54:39;4.40;87.20
9448;DHT22;4762;48.128;11.376;2024-02-23T05:56:41;4.20;87.10
9448;DHT22;4762;48.128;11.376;2024-02-23T05:58:43;4.40;86.80
9448;DHT22;4762;48.128;11.376;2024-02-23T06:00:45;4.20;86.50
9448;DHT22;4762;48.128;11.376;2024-02-23T06:02:47;4.20;87.00
9448;DHT22;4762;48.128;11.376;2024-02-23T06:04:50;4.40;86.30
9448;DHT22;4762;48.128;11.376;2024-02-23T06:06:52;4.40;86.10
9448;DHT22;4762;48.128;11.376;2024-02-23T06:08:54;4.30;85.80
9448;DHT22;4762;48.128;11.376;2024-02-23T06:10:56;4.30;85.00
9448;DHT22;4762;48.128;11.376;2024-02-23T06:12:58;4.30;85.10
9448;DHT22;4762;48.128;11.376;2024-02-23T06:15:01;4.60;84.20
9448;DHT22;4762;48.128;11.376;2024-02-23T06:17:03;4.30;83.90
9448;DHT22;4762;48.128;11.376;2024-02-23T06:19:05;4.30;83.00
9448;DHT22;4762;48.128;11.376;2024-02-23T06:21:12;4.40;82.70
9448;DHT22;4762;48.128;11.376;2024-02-23T06:23:14;4.10;83.10
9448;DHT22;4762;48.128;11.376;2024-02-23T06:25:16;4.40;82.80
9448;DHT22;4762;48.128;11.376;2024-02-23T06:27:18;4.30;82.70
9448;DHT22;4762;48.128;11.376;2024-02-23T06:29:21;4.30;83.20
9448;DHT22;4762;48.128;11.376;2024-02-23T06:31:23;4.40;82.70
9448;DHT22;4762;48.128;11.376;2024-02-23T06:33:25;4.20;82.80
9448;DHT22;4762;48.128;11.376;2024-02-23T06:35:27;4.30;82.80
9448;DHT22;4762;48.128;11.376;2024-02-23T06:37:30;4.30;83.20
9448;DHT22;4762;48.128;11.376;2024-02-23T06:39:32;4.10;82.40
9448;DHT22;4762;48.128;11.376;2024-02-23T06:41:34;4.30;82.70
9448;DHT22;4762;48.128;11.376;2024-02-23T06:43:36;4.40;82.70
9448;DHT22;4762;48.128;11.376;2024-02-23T06:45:38;4.40;82.80
9448;DHT22;4762;48.128;11.376;2024-02-23T06:47:41;4.30;81.50
9448;DHT22;4762;48.128;11.376;2024-02-23T06:49:43;4.30;82.70
9448;DHT22;4762;48.128;11.376;2024-02-23T06:51:46;4.30;82.40
9448;DHT22;4762;48.128;11.376;2024-02-23T06:53:48;4.30;82.90
9448;DHT22;4762;48.128;11.376;2024-02-23T06:55:50;4.30;83.60
9448;DHT22;4762;48.128;11.376;2024-02-23T06:57:53;4.50;83.40
9448;DHT22;4762;48.128;11.376;2024-02-23T06:59:55;4.30;82.60
9448;DHT22;4762;48.128;11.376;2024-02-23T07:01:57;4.40;82.50
9448;DHT22;4762;48.128;11.376;2024-02-23T07:04:05;4.40;82.80
9448;DHT22;4762;48.128;11.376;2024-02-23T07:06:07;4.20;82.70
9448;DHT22;4762;48.128;11.376;2024-02-23T07:08:10;4.20;83.10
9448;DHT22;4762;48.128;11.376;2024-02-23T07:10:12;4.30;82.90
9448;DHT22;4762;48.128;11.376;2024-02-23T07:12:14;4.30;82.80
9448;DHT22;4762;48.128;11.376;2024-02-23T07:14:16;4.20;83.50
9448;DHT22;4762;48.128;11.376;2024-02-23T07:16:18;4.30;83.20
9448;DHT22;4762;48.128;11.376;2024-02-23T07:18:21;4.20;82.40
9448;DHT22;4762;48.128;11.376;2024-02-23T07:20:23;4.30;82.60
9448;DHT22;4762;48.128;11.376;2024-02-23T07:22:25;4.40;81.80
9448;DHT22;4762;48.128;11.376;2024-02-23T07:24:27;4.40;82.20
9448;DHT22;4762;48.128;11.376;2024-02-23T07:26:29;4.50;81.80
9448;DHT22;4762;48.128;11.376;2024-02-23T07:28:32;4.40;81.70
9448;DHT22;4762;48.128;11.376;2024-02-23T07:30:34;4.30;81.90
9448;DHT22;4762;48.128;11.376;2024-02-23T07:32:37;4.20;81.20
9448;DHT22;4762;48.128;11.376;2024-02-23T07:34:39;4.20;81.80
9448;DHT22;4762;48.128;11.376;2024-02-23T07:36:41;4.30;81.70
9448;DHT22;4762;48.128;11.376;2024-02-23T07:38:43;4.30;81.50
9448;DHT22;4762;48.128;11.376;2024-02-23T07:40:46;4.30;80.80
9448;DHT22;4762;48.128;11.376;2024-02-23T07:42:48;4.20;81.20
9448;DHT22;4762;48.128;11.376;2024-02-23T07:44:51;4.40;81.30
9448;DHT22;4762;48.128;11.376;2024-02-23T07:46:52;4.20;81.40
9448;DHT22;4762;48.128;11.376;2024-02-23T07:48:55;4.40;80.90
9448;DHT22;4762;48.128;11.376;2024-02-23T07:50:57;4.50;80.50
9448;DHT22;4762;48.128;11.376;2024-02-23T07:52:59;4.30;81.20
9448;DHT22;4762;48.128;11.376;2024-02-23T07:55:01;4.40;81.00
9448;DHT22;4762;48.128;11.376;2024-02-23T07:57:04;4.60;81.70
9448;DHT22;4762;48.128;11.376;2024-02-23T07:59:07;4.50;81.10
9448;DHT22;4762;48.128;11.376;2024-02-23T08:01:09;4.60;80.20
9448;DHT22;4762;48.128;11.376;2024-02-23T08:03:11;4.50;81.50
9448;DHT22;4762;48.128;11.376;2024-02-23T08:05:14;4.70;80.60
9448;DHT22;4762;48.128;11.376;2024-02-23T08:07:16;4.50;80.00
9448;DHT22;4762;48.128;11.376;2024-02-23T08:09:18;4.80;81.40
9448;DHT22;4762;48.128;11.376;2024-02-23T08:11:21;4.70;79.50
9448;DHT22;4762;48.128;11.376;2024-02-23T08:13:23;4.70;80.20
9448;DHT22;4762;48.128;11.376;2024-02-23T08:15:25;4.80;81.80
9448;DHT22;4762;48.128;11.376;2024-02-23T08:17:28;4.80;80.20
9448;DHT22;4762;48.128;11.376;2024-02-23T08:19:30;4.90;79.40
9448;DHT22;4762;48.128;11.376;2024-02-23T08:21:32;5.10;80.70
9448;DHT22;4762;48.128;11.376;2024-02-23T08:23:34;4.90;78.40
9448;DHT22;4762;48.128;11.376;2024-02-23T08:25:36;5.00;79.70
9448;DHT22;4762;48.128;11.376;2024-02-23T08:27:40;4.90;78.30
9448;DHT22;4762;48.128;11.376;2024-02-23T08:29:41;5.00;79.60
9448;DHT22;4762;48.128;11.376;2024-02-23T08:31:43;5.30;80.30
9448;DHT22;4762;48.128;11.376;2024-02-23T08:33:45;5.30;80.00
9448;DHT22;4762;48.128;11.376;2024-02-23T08:35:47;5.20;77.10
9448;DHT22;4762;48.128;11.376;2024-02-23T08:37:51;5.60;78.70
9448;DHT22;4762;48.128;11.376;2024-02-23T08:39:53;5.60;78.60
9448;DHT22;4762;48.128;11.376;2024-02-23T08:41:55;5.70;77.90
9448;DHT22;4762;48.128;11.376;2024-02-23T08:43:58;5.40;77.70
9448;DHT22;4762;48.128;11.376;2024-02-23T08:46:00;5.40;75.70
9448;DHT22;4762;48.128;11.376;2024-02-23T08:48:02;5.40;75.90
9448;DHT22;4762;48.128;11.376;2024-02-23T08:50:06;5.40;75.30
9448;DHT22;4762;48.128;11.376;2024-02-23T08:52:08;5.20;74.70
9448;DHT22;4762;48.128;11.376;2024-02-23T08:54:11;5.00;75.20
9448;DHT22;4762;48.128;11.376;2024-02-23T08:56:13;5.40;75.50
9448;DHT22;4762;48.128;11.376;2024-02-23T08:58:16;5.20;75.00
9448;DHT22;4762;48.128;11.376;2024-02-23T09:00:18;5.30;75.50
9448;DHT22;4762;48.128;11.376;2024-02-23T09:02:21;5.20;75.40
9448;DHT22;4762;48.128;11.376;2024-02-23T09:04:23;5.30;74.60
9448;DHT22;4762;48.128;11.376;2024-02-23T09:06:26;5.10;73.00
9448;DHT22;4762;48.128;11.376;2024-02-23T09:08:28;5.10;73.00
9448;DHT22;4762;48.128;11.376;2024-02-23T09:10:30;5.20;71.20
9448;DHT22;4762;48.128;11.376;2024-02-23T09:12:32;5.20;71.70
9448;DHT22;4762;48.128;11.376;2024-02-23T09:14:35;5.10;72.90
9448;DHT22;4762;48.128;11.376;2024-02-23T09:16:37;5.20;73.30
9448;DHT22;4762;48.128;11.376;2024-02-23T09:18:39;5.20;72.50
9448;DHT22;4762;48.128;11.376;2024-02-23T09:20:41;5.30;73.70
9448;DHT22;4762;48.128;11.376;2024-02-23T09:22:43;5.20;73.40
9448;DHT22;4762;48.128;11.376;2024-02-23T09:24:46;5.20;72.80
9448;DHT22;4762;48.128;11.376;2024-02-23T09:26:48;5.40;73.70
9448;DHT22;4762;48.128;11.376;2024-02-23T09:28:50;5.50;74.60
9448;DHT22;4762;48.128;11.376;2024-02-23T09:30:53;5.60;73.10
9448;DHT22;4762;48.128;11.376;2024-02-23T09:32:55;5.40;73.30
9448;DHT22;4762;48.128;11.376;2024-02-23T09:34:57;5.40;73.80
9448;DHT22;4762;48.128;11.376;2024-02-23T09:36:59;5.20;75.10
9448;DHT22;4762;48.128;11.376;2024-02-23T09:39:01;5.60;74.30
9448;DHT22;4762;48.128;11.376;2024-02-23T09:41:04;5.40;75.40
9448;DHT22;4762;48.128;11.376;2024-02-23T09:43:06;5.50;73.90
9448;DHT22;4762;48.128;11.376;2024-02-23T09:45:09;5.40;74.50
9448;DHT22;4762;48.128;11.376;2024-02-23T09:47:12;5.40;75.10
9448;DHT22;4762;48.128;11.376;2024-02-23T09:49:16;5.60;75.50
9448;DHT22;4762;48.128;11.376;2024-02-23T09:51:19;5.60;77.50
9448;DHT22;4762;48.128;11.376;2024-02-23T09:53:21;5.40;75.80
9448;DHT22;4762;48.128;11.376;2024-02-23T09:55:23;5.50;77.40
9448;DHT22;4762;48.128;11.376;2024-02-23T09:57:25;5.50;76.50
9448;DHT22;4762;48.128;11.376;2024-02-23T09:59:28;5.50;76.40
9448;DHT22;4762;48.128;11.376;2024-02-23T10:01:31;5.70;76.80
9448;DHT22;4762;48.128;11.376;2024-02-23T10:03:32;5.60;76.90
9448;DHT22;4762;48.128;11.376;2024-02-23T10:05:35;5.60;73.50
9448;DHT22;4762;48.128;11.376;2024-02-23T10:07:37;5.70;74.30
9448;DHT22;4762;48.128;11.376;2024-02-23T10:09:39;5.80;73.70
9448;DHT22;4762;48.128;11.376;2024-02-23T10:11:41;5.90;74.20
9448;DHT22;4762;48.128;11.376;2024-02-23T10:13:44;6.10;74.80
9448;DHT22;4762;48.128;11.376;2024-02-23T10:15:47;6.00;70.50
9448;DHT22;4762;48.128;11.376;2024-02-23T10:17:49;5.80;73.10
9448;DHT22;4762;48.128;11.376;2024-02-23T10:19:51;5.90;70.50
9448;DHT22;4762;48.128;11.376;2024-02-23T10:21:54;6.10;70.00
9448;DHT22;4762;48.128;11.376;2024-02-23T10:23:56;6.30;69.80
9448;DHT22;4762;48.128;11.376;2024-02-23T10:25:58;6.30;66.80
9448;DHT22;4762;48.128;11.376;2024-02-23T10:28:03;6.40;66.30
9448;DHT22;4762;48.128;11.376;2024-02-23T10:30:06;6.50;67.30
9448;DHT22;4762;48.128;11.376;2024-02-23T10:32:09;6.70;67.60
9448;DHT22;4762;48.128;11.376;2024-02-23T10:34:10;6.70;64.90
9448;DHT22;4762;48.128;11.376;2024-02-23T10:36:13;6.80;68.40
9448;DHT22;4762;48.128;11.376;2024-02-23T10:38:15;6.80;63.30
9448;DHT22;4762;48.128;11.376;2024-02-23T10:40:18;6.50;64.80
9448;DHT22;4762;48.128;11.376;2024-02-23T10:42:19;6.50;62.50
9448;DHT22;4762;48.128;11.376;2024-02-23T10:44:21;6.50;65.20
9448;DHT22;4762;48.128;11.376;2024-02-23T10:46:24;6.70;62.10
9448;DHT22;4762;48.128;11.376;2024-02-23T10:48:26;6.60;64.30
9448;DHT22;4762;48.128;11.376;2024-02-23T10:50:28;6.30;63.20
9448;DHT22;4762;48.128;11.376;2024-02-23T10:52:30;6.20;65.40
9448;DHT22;4762;48.128;11.376;2024-02-23T10:54:32;6.20;63.40
9448;DHT22;4762;48.128;11.376;2024-02-23T10:56:35;6.00;64.70
9448;DHT22;4762;48.128;11.376;2024-02-23T10:58:37;6.10;66.00
9448;DHT22;4762;48.128;11.376;2024-02-23T11:00:39;6.00;64.90
9448;DHT22;4762;48.128;11.376;2024-02-23T11:02:45;6.10;63.20
9448;DHT22;4762;48.128;11.376;2024-02-23T11:04:47;5.90;65.50
9448;DHT22;4762;48.128;11.376;2024-02-23T11:06:52;6.10;65.80
9448;DHT22;4762;48.128;11.376;2024-02-23T11:09:04;6.20;64.30
9448;DHT22;4762;48.128;11.376;2024-02-23T11:10:56;6.30;64.90
9448;DHT22;4762;48.128;11.376;2024-02-23T11:12:59;6.60;66.60
9448;DHT22;4762;48.128;11.376;2024-02-23T11:15:01;6.20;65.60
9448;DHT22;4762;48.128;11.376;2024-02-23T11:17:03;6.10;66.10
9448;DHT22;4762;48.128;11.376;2024-02-23T11:19:06;6.00;67.40
9448;DHT22;4762;48.128;11.376;2024-02-23T11:21:09;6.50;66.40
9448;DHT22;4762;48.128;11.376;2024-02-23T11:23:13;6.30;67.90
9448;DHT22;4762;48.128;11.376;2024-02-23T11:25:15;6.50;68.00
9448;DHT22;4762;48.128;11.376;2024-02-23T11:27:17;6.10;68.50
9448;DHT22;4762;48.128;11.376;2024-02-23T11:29:19;6.00;69.70
9448;DHT22;4762;48.128;11.376;2024-02-23T11:31:23;6.00;70.30
9448;DHT22;4762;48.128;11.376;2024-02-23T11:33:26;5.70;69.20
9448;DHT22;4762;48.128;11.376;2024-02-23T11:35:28;5.60;70.10
9448;DHT22;4762;48.128;11.376;2024-02-23T11:37:30;5.50;69.90
9448;DHT22;4762;48.128;11.376;2024-02-23T11:39:32;5.70;68.40
9448;DHT22;4762;48.128;11.376;2024-02-23T11:41:34;5.70;70.20
9448;DHT22;4762;48.128;11.376;2024-02-23T11:43:37;5.70;69.00
9448;DHT22;4762;48.128;11.376;2024-02-23T11:45:40;5.60;71.40
9448;DHT22;4762;48.128;11.376;2024-02-23T11:47:42;5.80;68.60
9448;DHT22;4762;48.128;11.376;2024-02-23T11:49:45;5.50;70.30
9448;DHT22;4762;48.128;11.376;2024-02-23T11:51:47;5.40;69.40
9448;DHT22;4762;48.128;11.376;2024-02-23T11:53:50;5.50;70.00
9448;DHT22;4762;48.128;11.376;2024-02-23T11:55:54;5.20;70.80
9448;DHT22;4762;48.128;11.376;2024-02-23T12:05:54;5.40;70.00
9448;DHT22;4762;48.128;11.376;2024-02-23T12:07:56;5.30;69.60
9448;DHT22;4762;48.128;11.376;2024-02-23T12:09:59;5.50;70.00
9448;DHT22;4762;48.128;11.376;2024-02-23T12:12:01;5.10;69.00
9448;DHT22;4762;48.128;11.376;2024-02-23T12:14:03;5.30;69.30
9448;DHT22;4762;48.128;11.376;2024-02-23T12:16:07;5.40;71.00
9448;DHT22;4762;48.128;11.376;2024-02-23T12:18:10;5.20;70.50
9448;DHT22;4762;48.128;11.376;2024-02-23T12:20:11;5.00;70.70
9448;DHT22;4762;48.128;11.376;2024-02-23T12:22:14;5.10;69.80
9448;DHT22;4762;48.128;11.376;2024-02-23T12:24:16;5.20;70.50
9448;DHT22;4762;48.128;11.376;2024-02-23T12:26:18;5.10;69.60
9448;DHT22;4762;48.128;11.376;2024-02-23T12:28:21;5.00;69.50
9448;DHT22;4762;48.128;11.376;2024-02-23T12:30:23;5.00;69.80
9448;DHT22;4762;48.128;11.376;2024-02-23T12:32:26;5.00;69.70
9448;DHT22;4762;48.128;11.376;2024-02-23T12:34:29;5.00;71.10
9448;DHT22;4762;48.128;11.376;2024-02-23T12:36:31;5.20;69.70
9448;DHT22;4762;48.128;11.376;2024-02-23T12:38:33;5.20;68.50
9448;DHT22;4762;48.128;11.376;2024-02-23T12:40:36;5.10;70.00
9448;DHT22;4762;48.128;11.376;2024-02-23T12:42:38;5.30;69.10
9448;DHT22;4762;48.128;11.376;2024-02-23T12:44:40;5.00;69.80
9448;DHT22;4762;48.128;11.376;2024-02-23T12:46:42;5.30;69.90
9448;DHT22;4762;48.128;11.376;2024-02-23T12:48:45;5.30;69.70
9448;DHT22;4762;48.128;11.376;2024-02-23T12:50:48;5.40;68.60
9448;DHT22;4762;48.128;11.376;2024-02-23T12:52:50;5.10;68.40
9448;DHT22;4762;48.128;11.376;2024-02-23T12:54:52;5.10;69.50
9448;DHT22;4762;48.128;11.376;2024-02-23T12:56:55;5.00;69.00
9448;DHT22;4762;48.128;11.376;2024-02-23T12:58:57;5.10;68.90
9448;DHT22;4762;48.128;11.376;2024-02-23T13:00:59;5.00;69.00
9448;DHT22;4762;48.128;11.376;2024-02-23T13:03:01;5.00;68.10
9448;DHT22;4762;48.128;11.376;2024-02-23T13:05:04;5.10;68.10
9448;DHT22;4762;48.128;11.376;2024-02-23T13:07:06;4.90;69.00
9448;DHT22;4762;48.128;11.376;2024-02-23T13:09:08;5.10;68.60
9448;DHT22;4762;48.128;11.376;2024-02-23T13:11:10;5.10;68.30
9448;DHT22;4762;48.128;11.376;2024-02-23T13:13:13;5.10;68.90
9448;DHT22;4762;48.128;11.376;2024-02-23T13:15:15;5.10;68.20
9448;DHT22;4762;48.128;11.376;2024-02-23T13:17:17;5.00;69.50
9448;DHT22;4762;48.128;11.376;2024-02-23T13:19:19;4.90;69.40
9448;DHT22;4762;48.128;11.376;2024-02-23T13:21:22;5.00;69.20
9448;DHT22;4762;48.128;11.376;2024-02-23T13:23:24;5.10;69.20
9448;DHT22;4762;48.128;11.376;2024-02-23T13:25:27;5.20;69.30
9448;DHT22;4762;48.128;11.376;2024-02-23T13:27:28;5.20;69.10